TimeEDT,TemperatureF,Dew PointF,Humidity,Sea Level PressureIn,VisibilityMPH,Wind Direction,Wind SpeedMPH,Gust SpeedMPH,PrecipitationIn,Events,Conditions,WindDirDegrees,DateUTC
12:51 AM,64.9,63.0,93,29.97,10.0,Calm,Calm,-,N/A,,Clear,0,2013-09-08 04:51:00
1:51 AM,66.0,62.1,87,29.98,10.0,Calm,Calm,-,N/A,,Clear,0,2013-09-08 05:51:00
2:51 AM,66.0,63.0,90,29.98,10.0,Calm,Calm,-,N/A,,Partly Cloudy,0,2013-09-08 06:51:00
3:51 AM,66.0,63.0,90,29.97,10.0,Calm,Calm,-,N/A,,Overcast,0,2013-09-08 07:51:00
4:51 AM,66.0,63.0,90,29.96,10.0,Calm,Calm,-,0.00,,Clear,0,2013-09-08 08:51:00
5:51 AM,66.9,63.0,87,29.96,10.0,SSW,4.6,-,N/A,,Partly Cloudy,200,2013-09-08 09:51:00
6:51 AM,66.0,63.0,90,29.97,10.0,SSW,4.6,-,N/A,,Overcast,200,2013-09-08 10:51:00
7:51 AM,66.9,63.0,87,29.97,10.0,SSW,3.5,-,N/A,,Mostly Cloudy,200,2013-09-08 11:51:00
8:51 AM,69.1,64.9,87,29.99,10.0,Calm,Calm,-,N/A,,Overcast,0,2013-09-08 12:51:00
9:51 AM,72.0,66.0,81,29.99,10.0,SSW,3.5,-,N/A,,Partly Cloudy,200,2013-09-08 13:51:00
10:51 AM,77.0,68.0,74,29.99,10.0,Calm,Calm,-,N/A,,Clear,0,2013-09-08 14:51:00
11:51 AM,82.9,66.9,58,29.98,10.0,NNE,3.5,-,N/A,,Clear,20,2013-09-08 15:51:00
12:51 PM,84.9,66.0,53,29.97,10.0,Calm,Calm,-,N/A,,Clear,0,2013-09-08 16:51:00
1:51 PM,84.9,68.0,57,29.97,10.0,Variable,3.5,-,N/A,,Scattered Clouds,0,2013-09-08 17:51:00
2:51 PM,87.1,66.9,51,29.96,10.0,Calm,Calm,-,N/A,,Clear,0,2013-09-08 18:51:00
3:51 PM,86.0,64.0,48,29.95,10.0,Variable,3.5,-,N/A,,Mostly Cloudy,0,2013-09-08 19:51:00
4:51 PM,82.9,69.1,63,29.94,10.0,Calm,Calm,-,N/A,,Mostly Cloudy,0,2013-09-08 20:51:00
5:51 PM,86.0,66.9,53,29.94,10.0,NNW,5.8,-,N/A,,Mostly Cloudy,330,2013-09-08 21:51:00
6:51 PM,82.9,68.0,60,29.94,10.0,SW,3.5,-,N/A,,Clear,220,2013-09-08 22:51:00
7:51 PM,80.1,68.0,67,29.95,10.0,Calm,Calm,-,N/A,,Partly Cloudy,0,2013-09-08 23:51:00
8:51 PM,75.0,70.0,84,29.97,9.0,Calm,Calm,-,N/A,,Partly Cloudy,0,2013-09-09 00:51:00
9:51 PM,73.9,69.1,85,29.98,7.0,Calm,Calm,-,N/A,,Clear,0,2013-09-09 01:51:00
10:51 PM,72.0,69.1,91,29.99,4.0,Calm,Calm,-,N/A,,Scattered Clouds,0,2013-09-09 02:51:00
11:51 PM,72.0,69.1,91,30.00,6.0,Calm,Calm,-,N/A,,Clear,0,2013-09-09 03:51:00